Time;durP1;ratioP1;P1;durP2;ratioP2;P2;SDS_P1;SDS_P2;PMS_P1;PMS_P2;Temp;Humidity;BMP_temperature;BMP_pressure;BME280_temperature;BME280_humidity;BME280_pressure;Samples;Min_cycle;Max_cycle;Signal;HPM_P1;HPM_P2
2023/05/16 00:01:34;;;;;;;4.30;3.90;;;;;;;11.96;90.30;99684.70;103937;277;39015;-71
2023/05/16 00:04:08;;;;;;;4.00;3.60;;;;;;;12.00;90.64;99684.48;103930;277;38527;-74
2023/05/16 00:06:46;;;;;;;4.10;3.80;;;;;;;12.05;90.44;99687.20;103767;279;38404;-74
2023/05/16 00:09:21;;;;;;;4.80;4.20;;;;;;;12.08;90.44;99685.45;103859;277;38940;-72
2023/05/16 00:11:55;;;;;;;5.90;4.60;;;;;;;12.10;90.40;99683.59;103898;277;38380;-74
2023/05/16 00:14:32;;;;;;;6.00;4.10;;;;;;;12.12;90.43;99681.73;103924;277;38301;-70
2023/05/16 00:17:10;;;;;;;3.90;3.60;;;;;;;12.13;90.18;99684.27;103828;277;38765;-73
2023/05/16 00:19:46;;;;;;;5.10;4.60;;;;;;;12.14;90.05;99686.00;103884;277;39444;-71
2023/05/16 00:22:23;;;;;;;6.70;4.60;;;;;;;12.13;90.18;99684.45;103880;277;38242;-72
2023/05/16 00:25:01;;;;;;;4.80;4.40;;;;;;;12.14;90.09;99685.30;103947;277;38350;-74
2023/05/16 00:27:37;;;;;;;7.10;4.70;;;;;;;12.14;89.99;99680.91;103903;277;38384;-73
2023/05/16 00:30:15;;;;;;;5.30;4.80;;;;;;;12.14;90.12;99682.32;103913;277;38208;-72
2023/05/16 00:32:50;;;;;;;6.50;4.30;;;;;;;12.12;89.96;99686.23;103886;277;39374;-73
2023/05/16 00:35:28;;;;;;;4.60;4.20;;;;;;;12.12;90.01;99688.73;103891;277;38492;-73
2023/05/16 00:38:07;;;;;;;5.30;4.80;;;;;;;12.10;89.81;99685.48;103917;277;38340;-73
2023/05/16 00:40:41;;;;;;;5.00;4.50;;;;;;;12.03;89.53;99686.21;103938;277;38274;-73
2023/05/16 00:43:15;;;;;;;5.80;4.90;;;;;;;12.00;89.65;99686.61;103917;277;38975;-73
2023/05/16 00:45:50;;;;;;;5.60;4.90;;;;;;;11.95;89.43;99683.38;103918;277;38229;-73
2023/05/16 00:48:26;;;;;;;4.80;4.30;;;;;;;11.91;89.65;99687.79;103898;277;39546;-73
2023/05/16 00:51:03;;;;;;;9.80;5.10;;;;;;;11.89;89.69;99686.31;103754;277;38853;-73
2023/05/16 00:53:40;;;;;;;5.80;5.00;;;;;;;11.90;90.00;99687.29;103955;277;38694;-73
2023/05/16 00:56:18;;;;;;;6.40;5.20;;;;;;;11.92;90.12;99681.77;103905;277;38596;-73
2023/05/16 00:58:52;;;;;;;5.80;5.30;;;;;;;11.94;90.28;99685.34;103907;277;38592;-72
2023/05/16 01:01:27;;;;;;;5.50;5.00;;;;;;;11.97;90.34;99683.28;103322;277;902614;-73
2023/05/16 01:04:04;;;;;;;5.80;5.10;;;;;;;11.97;90.31;99678.89;103952;277;38566;-72
2023/05/16 01:06:42;;;;;;;6.00;5.40;;;;;;;11.98;90.32;99676.73;103917;277;38678;-74
2023/05/16 01:09:16;;;;;;;5.20;4.80;;;;;;;11.99;90.38;99678.59;103963;277;38272;-73
2023/05/16 01:11:59;;;;;;;5.70;5.10;;;;;;;12.02;90.44;99683.36;103943;277;38809;-72
2023/05/16 01:14:51;;;;;;;6.50;5.90;;;;;;;12.02;90.49;99688.90;103910;277;38636;-74
2023/05/16 01:17:32;;;;;;;7.30;5.50;;;;;;;11.99;90.28;99690.30;103925;277;38259;-73
2023/05/16 01:20:17;;;;;;;6.40;5.70;;;;;;;11.94;90.04;99692.87;103219;278;901339;-71
2023/05/16 01:23:14;;;;;;;6.40;5.50;;;;;;;11.93;90.17;99695.02;103759;278;38287;-76
2023/05/16 01:26:09;;;;;;;6.90;5.40;;;;;;;11.93;90.27;99697.63;103794;278;39459;-73
2023/05/16 01:28:43;;;;;;;6.40;5.80;;;;;;;11.93;90.30;99699.02;103798;278;38547;-73
2023/05/16 01:31:17;;;;;;;7.00;6.10;;;;;;;11.97;90.57;99696.36;103817;278;39332;-74
2023/05/16 01:33:53;;;;;;;6.70;6.00;;;;;;;12.01;90.77;99698.61;103802;278;38810;-71
2023/05/16 01:36:30;;;;;;;6.70;6.10;;;;;;;12.02;90.69;99705.36;103782;278;38243;-73
2023/05/16 01:39:15;;;;;;;6.30;5.70;;;;;;;12.01;90.80;99709.44;103773;278;38557;-73
2023/05/16 01:41:54;;;;;;;6.10;5.50;;;;;;;12.00;90.80;99714.40;103787;278;38669;-74
2023/05/16 01:44:32;;;;;;;7.10;6.40;;;;;;;12.04;90.98;99714.17;103774;278;38230;-74
2023/05/16 01:47:18;;;;;;;6.60;5.90;;;;;;;12.07;90.82;99718.55;103801;278;38522;-74
2023/05/16 01:49:58;;;;;;;7.10;6.40;;;;;;;12.08;90.77;99718.83;103712;278;175212;-71
2023/05/16 01:52:41;;;;;;;6.70;6.00;;;;;;;12.05;90.68;99720.06;103797;278;38942;-70
2023/05/16 01:55:20;;;;;;;6.00;5.50;;;;;;;12.06;90.65;99722.63;103833;278;38294;-73
2023/05/16 01:57:57;;;;;;;8.70;6.20;;;;;;;12.08;90.81;99723.75;103824;278;39660;-73
2023/05/16 02:00:32;;;;;;;7.10;6.40;;;;;;;12.07;90.83;99723.61;103765;279;39808;-73
2023/05/16 02:03:09;;;;;;;7.30;6.60;;;;;;;12.10;90.94;99726.77;103824;278;40318;-73
2023/05/16 02:05:47;;;;;;;8.90;6.60;;;;;;;12.10;90.96;99726.05;103861;278;38493;-73
2023/05/16 02:08:23;;;;;;;8.40;6.50;;;;;;;12.11;90.83;99722.34;103839;278;38404;-73
2023/05/16 02:11:00;;;;;;;7.00;6.30;;;;;;;12.12;90.75;99720.88;103903;278;38740;-74
2023/05/16 02:13:37;;;;;;;6.80;6.10;;;;;;;12.13;90.61;99729.27;103836;278;39778;-73
2023/05/16 02:16:14;;;;;;;6.90;6.20;;;;;;;12.15;90.69;99725.29;103880;278;38355;-73
2023/05/16 02:18:48;;;;;;;9.10;6.80;;;;;;;12.17;90.70;99723.27;103872;278;38391;-73
2023/05/16 02:21:24;;;;;;;7.50;6.70;;;;;;;12.18;90.55;99728.45;103233;278;902042;-71
2023/05/16 02:24:00;;;;;;;7.20;6.60;;;;;;;12.14;90.32;99731.45;103841;278;38970;-74
2023/05/16 02:26:39;;;;;;;6.90;6.30;;;;;;;12.08;90.02;99735.95;103804;278;38374;-73
2023/05/16 02:29:16;;;;;;;7.40;6.40;;;;;;;12.07;90.17;99731.64;103842;278;38540;-73
2023/05/16 02:31:50;;;;;;;7.00;6.30;;;;;;;12.08;90.19;99722.73;103822;278;38391;-72
2023/05/16 02:34:26;;;;;;;7.00;6.30;;;;;;;12.07;90.28;99724.84;103814;278;38513;-74
2023/05/16 02:37:00;;;;;;;8.80;7.00;;;;;;;12.06;90.06;99727.38;103829;278;39917;-73
2023/05/16 02:39:36;;;;;;;8.10;7.30;;;;;;;12.01;90.00;99733.03;103553;280;40511;-74
2023/05/16 02:42:11;;;;;;;11.00;6.80;;;;;;;12.01;90.28;99733.74;103813;278;38240;-72
2023/05/16 02:44:48;;;;;;;7.80;6.50;;;;;;;11.99;90.19;99737.33;103779;278;39660;-74
2023/05/16 02:47:23;;;;;;;6.90;6.30;;;;;;;12.00;90.07;99735.38;103816;278;38957;-72
2023/05/16 02:49:59;;;;;;;7.00;6.10;;;;;;;11.96;89.77;99733.31;103768;278;39571;-75
2023/05/16 02:52:33;;;;;;;9.80;7.20;;;;;;;11.91;89.58;99729.90;103788;278;38290;-73
2023/05/16 02:55:11;;;;;;;7.10;6.40;;;;;;;11.86;89.64;99729.10;103786;278;39698;-74
2023/05/16 02:57:49;;;;;;;7.30;6.70;;;;;;;11.80;89.58;99734.64;103786;278;38563;-73
2023/05/16 03:00:26;;;;;;;6.90;6.30;;;;;;;11.77;89.64;99737.79;103824;278;38507;-74
2023/05/16 03:03:00;;;;;;;6.50;5.50;;;;;;;11.75;89.75;99742.63;103792;278;38218;-73
2023/05/16 03:05:37;;;;;;;6.70;6.00;;;;;;;11.73;89.75;99748.12;103816;278;38342;-72
2023/05/16 03:08:11;;;;;;;7.60;6.90;;;;;;;11.71;89.64;99752.59;103847;278;38726;-72
2023/05/16 03:10:47;;;;;;;7.30;6.50;;;;;;;11.68;89.77;99749.80;103861;278;38272;-73
2023/05/16 03:13:21;;;;;;;7.20;6.50;;;;;;;11.63;89.74;99745.30;103809;278;39795;-72
2023/05/16 03:15:57;;;;;;;6.80;6.20;;;;;;;11.62;89.92;99749.02;103895;278;38507;-73
2023/05/16 03:18:35;;;;;;;8.00;6.40;;;;;;;11.63;90.07;99753.17;103835;278;38361;-71
2023/05/16 03:21:12;;;;;;;7.70;6.60;;;;;;;11.65;90.10;99747.52;103842;278;39599;-74
2023/05/16 03:23:50;;;;;;;7.60;7.00;;;;;;;11.67;89.94;99741.30;103894;278;39606;-73
2023/05/16 03:26:30;;;;;;;7.20;6.20;;;;;;;11.69;90.01;99751.70;103862;278;38319;-73
2023/05/16 03:29:04;;;;;;;7.60;6.80;;;;;;;11.71;89.98;99753.27;103855;278;38375;-73
2023/05/16 03:31:41;;;;;;;7.00;6.30;;;;;;;11.73;89.84;99747.27;103839;278;38897;-73
2023/05/16 03:34:17;;;;;;;6.00;5.50;;;;;;;11.76;89.79;99753.20;103860;278;38371;-74
2023/05/16 03:36:51;;;;;;;6.60;5.60;;;;;;;11.77;89.70;99753.14;103827;278;38623;-72
2023/05/16 03:39:27;;;;;;;6.80;6.20;;;;;;;11.90;89.92;99751.80;103812;278;38768;-73
2023/05/16 03:42:01;;;;;;;7.20;6.60;;;;;;;12.08;90.15;99755.40;103805;278;38230;-72
2023/05/16 03:44:35;;;;;;;6.80;6.10;;;;;;;12.53;91.14;99754.63;103847;278;38238;-71
2023/05/16 03:47:11;;;;;;;6.30;5.70;;;;;;;13.17;90.86;99754.50;103686;278;175118;-72
2023/05/16 03:49:45;;;;;;;7.30;5.40;;;;;;;13.75;90.11;99751.73;103798;278;39787;-73
2023/05/16 03:52:21;;;;;;;6.20;5.60;;;;;;;14.42;88.79;99750.73;103283;278;671895;-72
2023/05/16 03:55:00;;;;;;;6.00;5.50;;;;;;;14.99;86.59;99749.67;103750;278;39446;-73
2023/05/16 03:57:33;;;;;;;;;;;;;;;15.40;83.54;99747.08;103847;278;38625;-73
2023/05/16 04:00:15;;;;;;;6.60;6.00;;;;;;;15.72;82.53;99743.33;103808;278;39560;-74
2023/05/16 04:02:52;;;;;;;7.80;5.80;;;;;;;15.95;80.14;99741.40;103835;278;39716;-74
2023/05/16 04:05:29;;;;;;;6.90;6.00;;;;;;;15.88;78.56;99749.78;103821;278;38597;-73
2023/05/16 04:08:05;;;;;;;6.40;5.80;;;;;;;15.78;78.39;99748.23;103813;278;38702;-73
2023/05/16 04:10:41;;;;;;;6.80;5.70;;;;;;;15.53;77.44;99749.55;103836;278;38964;-73
2023/05/16 04:13:17;;;;;;;6.00;5.50;;;;;;;15.19;76.85;99750.50;103832;278;38238;-70
2023/05/16 04:15:54;;;;;;;6.90;6.20;;;;;;;14.95;77.40;99752.98;103703;280;38368;-73
2023/05/16 04:18:34;;;;;;;6.70;6.10;;;;;;;14.97;77.60;99758.44;103848;278;39449;-73
2023/05/16 04:21:14;;;;;;;6.30;5.50;;;;;;;15.07;77.44;99762.72;103813;278;38822;-71
2023/05/16 04:23:48;;;;;;;6.50;5.90;;;;;;;15.00;76.84;99763.54;103870;278;39452;-72
2023/05/16 04:26:23;;;;;;;6.50;5.90;;;;;;;14.84;77.07;99763.88;103921;278;39335;-70
2023/05/16 04:29:02;;;;;;;6.70;6.10;;;;;;;14.67;76.99;99761.98;103963;278;38273;-71
2023/05/16 04:31:37;;;;;;;6.40;5.50;;;;;;;14.55;77.33;99765.57;103903;278;38255;-73
2023/05/16 04:34:12;;;;;;;6.70;6.10;;;;;;;14.44;77.51;99766.88;103880;278;38527;-73
2023/05/16 04:36:49;;;;;;;6.30;5.70;;;;;;;14.37;77.72;99769.30;103822;278;38301;-73
2023/05/16 04:39:23;;;;;;;5.60;5.10;;;;;;;14.32;78.27;99770.87;103852;278;38421;-74
2023/05/16 04:42:00;;;;;;;6.20;5.60;;;;;;;14.30;78.22;99772.20;103830;278;38540;-74
2023/05/16 04:44:34;;;;;;;8.00;5.90;;;;;;;14.34;78.65;99772.66;103919;278;38359;-73
2023/05/16 04:47:11;;;;;;;6.50;5.90;;;;;;;14.54;79.10;99769.80;103860;278;38549;-73
2023/05/16 04:49:50;;;;;;;6.30;5.70;;;;;;;15.09;79.54;99775.67;103899;278;38340;-71
2023/05/16 04:52:29;;;;;;;6.00;5.30;;;;;;;16.02;78.98;99773.66;103862;278;38437;-72
2023/05/16 04:55:08;;;;;;;5.80;5.00;;;;;;;17.03;77.95;99773.38;103814;278;38777;-72
2023/05/16 04:57:45;;;;;;;6.30;4.80;;;;;;;18.00;74.81;99773.23;103849;278;39641;-74
2023/05/16 05:00:21;;;;;;;5.70;5.10;;;;;;;18.91;72.23;99770.38;103842;278;39600;-74
2023/05/16 05:02:56;;;;;;;5.70;5.20;;;;;;;19.74;69.11;99774.38;103823;278;39149;-74
2023/05/16 05:05:30;;;;;;;6.30;5.10;;;;;;;20.30;65.50;99773.44;103836;278;38951;-72
2023/05/16 05:08:12;;;;;;;5.70;5.20;;;;;;;20.49;64.20;99785.08;103907;278;38429;-73
2023/05/16 05:10:47;;;;;;;5.00;4.50;;;;;;;20.72;61.18;99794.00;103858;278;38470;-74
2023/05/16 05:13:31;;;;;;;7.40;5.70;;;;;;;20.40;59.68;99789.07;103847;278;38720;-73
2023/05/16 05:16:09;;;;;;;6.00;4.90;;;;;;;20.89;59.31;99786.11;103827;278;38597;-73
2023/05/16 05:18:43;;;;;;;6.50;5.50;;;;;;;21.37;57.60;99784.23;103783;278;38346;-74
2023/05/16 05:21:24;;;;;;;5.70;5.20;;;;;;;21.33;56.13;99787.10;103824;278;38407;-76
2023/05/16 05:23:59;;;;;;;7.60;6.00;;;;;;;20.97;56.63;99783.77;103709;278;38557;-72
2023/05/16 05:26:35;;;;;;;6.20;5.60;;;;;;;20.57;56.76;99791.27;103808;278;39515;-74
2023/05/16 05:29:12;;;;;;;7.70;5.50;;;;;;;20.14;56.74;99802.31;103846;278;39839;-72
2023/05/16 05:31:48;;;;;;;6.00;5.30;;;;;;;19.75;57.76;99805.33;103661;279;174720;-73
2023/05/16 05:34:28;;;;;;;7.00;5.90;;;;;;;19.82;58.36;99806.29;103877;278;38788;-74
2023/05/16 05:37:12;;;;;;;6.50;6.00;;;;;;;19.71;58.53;99811.48;103773;278;38492;-72
2023/05/16 05:39:48;;;;;;;6.80;5.90;;;;;;;19.65;58.69;99816.95;103828;278;38675;-74
2023/05/16 05:42:26;;;;;;;7.00;6.30;;;;;;;19.46;57.83;99815.88;103857;278;38316;-74
2023/05/16 05:45:02;;;;;;;6.80;6.20;;;;;;;19.11;58.46;99817.73;103905;278;39387;-74
2023/05/16 05:47:40;;;;;;;7.70;6.90;;;;;;;18.75;58.59;99819.79;103847;278;38259;-73
2023/05/16 05:50:18;;;;;;;7.40;6.60;;;;;;;18.37;59.32;99824.39;103711;278;38688;-73
2023/05/16 05:52:54;;;;;;;7.10;6.50;;;;;;;18.02;59.37;99833.52;103766;278;39470;-73
2023/05/16 05:55:29;;;;;;;7.10;6.50;;;;;;;17.63;59.61;99834.69;103896;278;39420;-73
2023/05/16 05:58:05;;;;;;;9.00;6.40;;;;;;;17.39;60.78;99844.79;103919;278;40293;-73
2023/05/16 06:00:43;;;;;;;7.60;6.90;;;;;;;17.25;61.65;99850.78;103895;278;38540;-74
2023/05/16 06:03:24;;;;;;;8.00;7.10;;;;;;;17.09;62.06;99861.09;103865;278;38233;-73
2023/05/16 06:06:01;;;;;;;7.70;6.90;;;;;;;16.87;62.07;99862.90;103889;266;38546;-72
2023/05/16 06:08:38;;;;;;;9.30;7.40;;;;;;;16.67;62.58;99870.98;103849;278;38252;-74
2023/05/16 06:11:13;;;;;;;8.50;7.30;;;;;;;16.49;63.13;99884.02;103775;279;39399;-72
2023/05/16 06:13:52;;;;;;;8.40;7.30;;;;;;;16.28;63.75;99890.03;103829;278;38224;-74
2023/05/16 06:16:28;;;;;;;8.10;7.10;;;;;;;16.07;64.53;99894.70;103824;278;39433;-73
2023/05/16 06:19:04;;;;;;;;;;;;;;;15.90;64.57;99894.95;103898;267;38284;-75
2023/05/16 06:21:43;;;;;;;9.00;7.80;;;;;;;15.69;65.10;99897.95;103834;278;38402;-72
2023/05/16 06:24:19;;;;;;;7.50;6.90;;;;;;;15.52;65.55;99907.84;103828;278;38921;-72
2023/05/16 06:26:57;;;;;;;7.40;6.80;;;;;;;15.40;65.96;99924.45;103719;278;38351;-72
2023/05/16 06:29:35;;;;;;;7.50;6.80;;;;;;;15.31;66.35;99925.05;103817;278;38286;-73
2023/05/16 06:32:12;;;;;;;7.50;6.70;;;;;;;15.26;66.73;99931.19;103200;266;899197;-72
2023/05/16 06:34:50;;;;;;;7.90;7.10;;;;;;;15.26;67.08;99931.16;103857;278;39875;-72
2023/05/16 06:37:28;;;;;;;7.50;6.90;;;;;;;15.29;67.30;99934.53;103809;277;38543;-71
2023/05/16 06:40:06;;;;;;;8.30;7.50;;;;;;;15.23;67.09;99934.70;103899;278;38524;-70
2023/05/16 06:42:48;;;;;;;8.10;7.40;;;;;;;15.12;66.99;99936.60;103847;278;39397;-75
2023/05/16 06:45:27;;;;;;;8.40;7.50;;;;;;;15.07;67.44;99938.92;103805;279;38559;-74
2023/05/16 06:48:10;;;;;;;7.90;7.20;;;;;;;15.05;67.69;99940.96;103899;278;38507;-73
2023/05/16 06:50:51;;;;;;;7.10;6.50;;;;;;;15.03;67.59;99943.04;103760;278;175021;-74
2023/05/16 06:53:38;;;;;;;7.50;6.80;;;;;;;15.02;67.91;99947.13;103718;278;38736;-73
2023/05/16 06:56:16;;;;;;;7.50;6.80;;;;;;;15.04;68.09;99956.10;103845;278;38845;-71
2023/05/16 06:58:52;;;;;;;9.40;6.80;;;;;;;15.09;68.41;99959.34;103849;278;38374;-72
2023/05/16 07:01:28;;;;;;;8.00;7.40;;;;;;;15.12;68.49;99962.81;103819;278;38612;-71
2023/05/16 07:04:07;;;;;;;7.60;6.90;;;;;;;15.16;68.73;99963.78;103864;278;38765;-72
2023/05/16 07:06:43;;;;;;;7.40;6.70;;;;;;;15.22;68.49;99972.35;103893;278;38696;-72
2023/05/16 07:09:27;;;;;;;7.20;6.60;;;;;;;15.32;68.35;99972.95;103864;278;38507;-73
2023/05/16 07:12:15;;;;;;;6.50;5.70;;;;;;;15.41;68.35;99977.61;103794;278;39421;-73
2023/05/16 07:14:57;;;;;;;6.20;5.70;;;;;;;15.52;67.90;99985.95;103672;280;38280;-73
2023/05/16 07:17:37;;;;;;;6.10;5.60;;;;;;;15.65;68.31;99989.85;103855;278;38451;-73
2023/05/16 07:20:16;;;;;;;6.50;5.90;;;;;;;15.79;67.96;99992.80;103843;278;39727;-74
2023/05/16 07:22:50;;;;;;;8.00;6.00;;;;;;;15.98;67.84;99997.53;103824;279;38826;-72
2023/05/16 07:25:24;;;;;;;7.50;5.90;;;;;;;16.41;69.40;99995.67;103704;280;40833;-71
2023/05/16 07:28:00;;;;;;;6.90;6.30;;;;;;;17.55;70.62;99995.95;103822;278;38234;-71
2023/05/16 07:30:36;;;;;;;5.50;5.00;;;;;;;18.86;67.54;99999.15;103878;278;38559;-73
2023/05/16 07:33:10;;;;;;;4.70;4.20;;;;;;;20.05;62.30;100001.16;103869;278;38256;-74
2023/05/16 07:35:46;;;;;;;4.20;3.50;;;;;;;20.91;59.16;100001.66;103807;278;38253;-74
2023/05/16 07:38:21;;;;;;;3.50;3.20;;;;;;;21.53;57.31;100007.84;103812;278;38274;-72
2023/05/16 07:40:58;;;;;;;4.00;3.60;;;;;;;21.74;54.61;100006.44;103813;278;39374;-74
2023/05/16 07:43:37;;;;;;;3.40;3.10;;;;;;;21.50;51.88;100019.37;103775;278;39747;-73
2023/05/16 07:46:14;;;;;;;4.00;3.10;;;;;;;20.91;51.67;100030.27;103770;278;38374;-72
2023/05/16 07:48:53;;;;;;;3.60;3.30;;;;;;;20.32;52.16;100033.34;103835;278;38248;-71
2023/05/16 07:51:29;;;;;;;6.50;4.40;;;;;;;19.76;53.25;100035.27;103826;278;38959;-73
2023/05/16 07:54:03;;;;;;;6.20;3.60;;;;;;;19.40;54.56;100038.02;103848;278;39450;-73
2023/05/16 07:56:37;;;;;;;4.80;3.60;;;;;;;19.15;55.18;100042.47;103847;278;39553;-74
2023/05/16 07:59:12;;;;;;;3.60;3.40;;;;;;;18.98;56.08;100044.65;103832;278;39634;-75
2023/05/16 08:01:52;;;;;;;4.10;3.70;;;;;;;18.83;56.45;100050.11;103796;278;39886;-73
2023/05/16 08:04:26;;;;;;;4.10;3.80;;;;;;;18.66;56.56;100052.45;103827;278;38235;-72
2023/05/16 08:07:01;;;;;;;4.40;4.00;;;;;;;18.45;56.75;100049.30;103836;278;38517;-74
2023/05/16 08:09:39;;;;;;;5.00;3.90;;;;;;;18.26;57.03;100058.64;103826;278;38223;-72
2023/05/16 08:12:15;;;;;;;4.50;4.10;;;;;;;18.09;57.53;100060.66;103810;278;38806;-71
2023/05/16 08:14:51;;;;;;;4.30;3.80;;;;;;;17.95;58.26;100061.29;103745;278;38339;-72
2023/05/16 08:17:26;;;;;;;4.10;3.70;;;;;;;17.87;58.90;100056.95;103862;278;38243;-72
2023/05/16 08:20:04;;;;;;;3.90;3.50;;;;;;;17.96;59.11;100055.95;103732;278;174818;-74
2023/05/16 08:22:38;;;;;;;3.40;3.10;;;;;;;18.10;59.35;100059.67;103776;278;174785;-73
2023/05/16 08:25:16;;;;;;;4.60;3.30;;;;;;;18.25;59.72;100061.95;103765;278;38699;-73
2023/05/16 08:27:53;;;;;;;3.60;3.20;;;;;;;18.47;59.62;100060.24;103225;278;898903;-73
2023/05/16 08:30:29;;;;;;;3.60;3.10;;;;;;;18.73;59.61;100058.84;103848;278;38438;-73
2023/05/16 08:33:04;;;;;;;3.60;2.80;;;;;;;18.98;59.41;100055.64;103877;278;38268;-74
2023/05/16 08:35:37;;;;;;;2.60;2.40;;;;;;;19.11;57.68;100051.96;103809;278;39422;-71
2023/05/16 08:38:12;;;;;;;2.60;2.40;;;;;;;19.35;57.94;100052.54;103844;278;39362;-73
2023/05/16 08:40:46;;;;;;;3.80;2.40;;;;;;;19.57;56.65;100051.34;103832;278;38900;-73
2023/05/16 08:43:21;;;;;;;2.90;2.70;;;;;;;19.71;56.84;100050.06;103819;278;39638;-71
2023/05/16 08:45:55;;;;;;;2.80;2.40;;;;;;;20.13;57.37;100052.09;103856;278;39949;-72
2023/05/16 08:48:33;;;;;;;3.70;2.20;;;;;;;20.44;55.65;100054.14;103827;278;39917;-72
2023/05/16 08:51:09;;;;;;;5.00;2.40;;;;;;;20.44;54.69;100055.75;103849;278;38287;-74
2023/05/16 08:53:50;;;;;;;2.40;2.20;;;;;;;20.31;54.04;100058.00;103825;278;38871;-72
2023/05/16 08:56:27;;;;;;;2.50;2.30;;;;;;;20.16;53.96;100058.56;103803;278;38253;-72
2023/05/16 08:59:05;;;;;;;3.90;2.90;;;;;;;19.95;54.19;100058.35;103837;278;38725;-73
2023/05/16 09:01:42;;;;;;;5.10;2.90;;;;;;;19.79;54.84;100054.72;103834;278;39642;-74
2023/05/16 09:04:17;;;;;;;2.40;2.10;;;;;;;19.62;55.17;100059.23;103676;278;39349;-72
2023/05/16 09:06:51;;;;;;;3.90;2.70;;;;;;;19.52;55.08;100063.35;103815;278;38510;-72
2023/05/16 09:09:25;;;;;;;4.60;2.60;;;;;;;19.45;54.94;100062.71;103828;278;38237;-72
2023/05/16 09:12:01;;;;;;;2.70;2.50;;;;;;;19.42;55.52;100067.77;103846;278;38661;-74
2023/05/16 09:14:38;;;;;;;4.60;2.80;;;;;;;19.49;56.04;100065.73;103719;278;39435;-74
2023/05/16 09:17:15;;;;;;;2.20;2.10;;;;;;;19.51;55.62;100064.53;103867;278;38312;-73
2023/05/16 09:19:51;;;;;;;3.20;2.20;;;;;;;19.63;55.54;100065.36;103807;278;38492;-71
2023/05/16 09:22:31;;;;;;;2.50;1.80;;;;;;;20.03;55.79;100063.35;103796;278;38457;-73
2023/05/16 09:25:07;;;;;;;2.70;2.30;;;;;;;20.67;56.33;100064.73;103710;278;188149;-73
2023/05/16 09:27:45;;;;;;;3.20;2.20;;;;;;;21.36;54.88;100066.75;103810;278;38339;-73
2023/05/16 09:30:21;;;;;;;2.80;1.60;;;;;;;21.74;52.83;100070.33;103827;278;39710;-73
2023/05/16 09:32:57;;;;;;;3.30;2.60;;;;;;;21.56;51.77;100084.21;103806;278;38528;-73
2023/05/16 09:35:34;;;;;;;1.60;1.50;;;;;;;21.31;50.75;100090.46;103826;278;38254;-72
2023/05/16 09:38:17;;;;;;;2.70;1.50;;;;;;;21.06;51.28;100103.23;103823;278;38295;-72
2023/05/16 09:40:52;;;;;;;3.10;2.20;;;;;;;20.77;51.28;100100.95;103832;278;39472;-71
2023/05/16 09:43:29;;;;;;;6.70;3.10;;;;;;;20.50;51.47;100101.79;103833;278;38256;-72
2023/05/16 09:46:09;;;;;;;2.30;1.80;;;;;;;20.29;52.22;100107.94;103841;278;38858;-74
2023/05/16 09:48:51;;;;;;;2.60;1.50;;;;;;;20.18;51.76;100115.10;103887;278;39709;-74
2023/05/16 09:51:26;;;;;;;2.60;1.50;;;;;;;20.08;52.21;100119.39;103771;278;38754;-73
2023/05/16 09:54:02;;;;;;;1.80;1.60;;;;;;;20.03;52.24;100128.15;103837;278;38515;-71
2023/05/16 09:56:37;;;;;;;2.70;1.60;;;;;;;19.96;52.62;100130.33;103866;278;39872;-73
2023/05/16 09:59:16;;;;;;;2.10;1.90;;;;;;;19.86;52.78;100133.08;103820;278;38250;-72
2023/05/16 10:01:56;;;;;;;2.00;1.70;;;;;;;19.80;53.11;100138.69;103825;278;39952;-73
2023/05/16 10:04:33;;;;;;;2.10;1.90;;;;;;;19.83;53.81;100141.08;103748;278;39301;-73
2023/05/16 10:07:12;;;;;;;1.50;1.40;;;;;;;20.07;53.85;100147.84;103797;278;39903;-72
2023/05/16 10:09:48;;;;;;;1.50;1.40;;;;;;;20.37;53.14;100143.62;103832;278;38698;-73
2023/05/16 10:12:23;;;;;;;2.40;1.80;;;;;;;20.40;52.46;100156.87;103704;278;172032;-73
2023/05/16 10:14:59;;;;;;;2.60;1.70;;;;;;;20.31;52.40;100162.36;103816;278;38655;-71
2023/05/16 10:17:36;;;;;;;2.80;2.10;;;;;;;20.11;51.58;100165.97;103693;278;38371;-71
2023/05/16 10:20:17;;;;;;;2.00;1.70;;;;;;;19.82;51.50;100172.75;103847;278;40032;-74
2023/05/16 10:22:54;;;;;;;2.40;1.70;;;;;;;19.56;51.89;100175.27;103703;278;189507;-73
2023/05/16 10:25:34;;;;;;;2.20;1.70;;;;;;;19.36;52.94;100179.45;103854;278;38361;-74
2023/05/16 10:28:09;;;;;;;2.70;1.80;;;;;;;19.26;53.26;100184.18;103810;266;39921;-72
2023/05/16 10:30:44;;;;;;;2.30;1.90;;;;;;;19.27;54.65;100184.27;103817;278;38346;-73
2023/05/16 10:33:19;;;;;;;2.50;1.80;;;;;;;19.35;54.98;100183.25;103909;278;38457;-71
2023/05/16 10:35:54;;;;;;;2.10;1.80;;;;;;;19.46;54.99;100184.74;103723;280;39814;-73
2023/05/16 10:38:34;;;;;;;1.90;1.60;;;;;;;19.48;53.94;100190.61;103867;278;38526;-73
2023/05/16 10:41:10;;;;;;;2.60;1.40;;;;;;;19.37;53.27;100195.32;103867;278;38366;-73
2023/05/16 10:44:01;;;;;;;1.90;1.40;;;;;;;19.21;53.25;100200.64;103858;278;38334;-72
2023/05/16 10:46:37;;;;;;;1.70;1.30;;;;;;;19.05;53.29;100197.45;103896;278;39643;-72
2023/05/16 10:49:26;;;;;;;2.30;1.40;;;;;;;18.90;53.49;100198.24;103870;278;38504;-72
2023/05/16 10:52:12;;;;;;;4.00;1.40;;;;;;;18.79;53.99;100199.90;103866;278;38611;-73
2023/05/16 10:54:55;;;;;;;1.90;1.40;;;;;;;18.82;54.59;100195.78;103775;278;40134;-72
2023/05/16 10:57:35;;;;;;;2.80;1.40;;;;;;;18.99;54.81;100193.65;103929;278;39464;-72
2023/05/16 11:00:16;;;;;;;2.10;1.50;;;;;;;19.12;54.58;100193.17;103910;278;38376;-72
2023/05/16 11:02:50;;;;;;;1.60;1.50;;;;;;;19.25;53.93;100196.24;103740;275;38352;-73
2023/05/16 11:05:25;;;;;;;2.90;1.70;;;;;;;19.31;53.57;100200.38;103810;278;38532;-71
2023/05/16 11:08:09;;;;;;;1.60;1.20;;;;;;;19.33;54.08;100205.49;103875;278;38556;-73
2023/05/16 11:10:43;;;;;;;1.90;1.30;;;;;;;19.35;54.31;100210.33;103903;278;38312;-71
2023/05/16 11:13:22;;;;;;;2.50;1.30;;;;;;;19.32;54.17;100210.72;103795;278;38640;-71
2023/05/16 11:16:31;;;;;;;1.70;1.40;;;;;;;19.26;53.89;100215.08;103853;278;38914;-71
2023/05/16 11:19:10;;;;;;;1.30;1.20;;;;;;;19.08;53.82;100226.34;103813;278;38362;-71
2023/05/16 11:22:14;;;;;;;1.80;1.40;;;;;;;18.89;54.02;100230.09;103735;279;38525;-72
2023/05/16 11:25:03;;;;;;;1.60;1.10;;;;;;;18.71;54.99;100233.71;103865;282;38491;-73
2023/05/16 11:27:46;;;;;;;2.00;1.30;;;;;;;18.62;55.41;100231.59;103849;278;38265;-72
2023/05/16 11:30:25;;;;;;;2.00;1.20;;;;;;;18.64;55.64;100228.20;103788;278;38243;-73
2023/05/16 11:32:59;;;;;;;1.80;1.50;;;;;;;18.77;56.20;100230.30;103817;278;40013;-73
2023/05/16 11:35:35;;;;;;;2.40;1.70;;;;;;;18.95;55.89;100228.77;103869;278;38496;-71
2023/05/16 11:38:15;;;;;;;2.60;1.20;;;;;;;19.21;55.68;100224.33;103816;278;38256;-73
2023/05/16 11:40:49;;;;;;;2.40;1.50;;;;;;;19.57;55.37;100227.38;103851;278;39667;-73
2023/05/16 11:43:24;;;;;;;1.80;1.60;;;;;;;19.80;54.51;100235.48;103803;278;39661;-74
2023/05/16 11:46:04;;;;;;;2.20;1.50;;;;;;;19.94;54.12;100235.67;103828;278;40126;-73
2023/05/16 11:48:39;;;;;;;2.00;1.70;;;;;;;19.99;53.49;100238.27;103807;278;39632;-73
2023/05/16 11:51:17;;;;;;;1.50;1.40;;;;;;;20.05;53.35;100235.86;103319;278;563943;-74
2023/05/16 11:53:53;;;;;;;2.10;1.50;;;;;;;20.16;53.77;100238.14;103893;278;38253;-74
2023/05/16 11:56:27;;;;;;;2.70;1.70;;;;;;;20.33;53.39;100243.66;103927;278;38263;-74
2023/05/16 11:59:06;;;;;;;2.10;1.50;;;;;;;20.44;52.70;100238.59;103963;278;38236;-74
2023/05/16 12:01:41;;;;;;;2.10;1.70;;;;;;;20.54;51.95;100238.67;103791;278;38313;-75
2023/05/16 12:04:21;;;;;;;1.90;1.70;;;;;;;20.46;51.44;100246.88;103900;278;38243;-74
2023/05/16 12:07:04;;;;;;;1.90;1.70;;;;;;;20.35;51.24;100249.56;103857;270;40161;-71
2023/05/16 12:09:41;;;;;;;2.70;1.90;;;;;;;20.33;51.53;100248.30;103832;278;38879;-73
2023/05/16 12:12:17;;;;;;;3.70;1.50;;;;;;;20.46;52.22;100247.63;103841;278;38396;-71
2023/05/16 12:14:52;;;;;;;1.70;1.50;;;;;;;20.68;52.71;100244.39;103849;278;38475;-72
2023/05/16 12:17:29;;;;;;;2.20;1.60;;;;;;;20.90;51.96;100245.64;103843;278;40022;-74